Time;durP1;ratioP1;P1;durP2;ratioP2;P2;SDS_P1;SDS_P2;PMS_P1;PMS_P2;Temp;Humidity;BMP_temperature;BMP_pressure;BME280_temperature;BME280_humidity;BME280_pressure;Samples;Min_cycle;Max_cycle;Signal;HPM_P1;HPM_P2
2021/12/22 00:00:59;;;;;;;19.40;12.40;;;-0.80;99.90;;;;;;5078188;28;20409;-82
2021/12/22 00:03:25;;;;;;;16.40;12.17;;;-0.80;99.90;;;;;;5088347;28;20434;-84
2021/12/22 00:05:52;;;;;;;21.03;13.10;;;-1.10;99.90;;;;;;5072549;28;21057;-83
2021/12/22 00:08:19;;;;;;;19.00;13.00;;;-1.20;99.90;;;;;;5075950;28;20526;-84
2021/12/22 00:10:46;;;;;;;18.47;13.20;;;-1.10;99.90;;;;;;5080255;28;20835;-83
2021/12/22 00:13:12;;;;;;;17.33;13.60;;;-1.10;99.90;;;;;;5065311;28;20423;-84
2021/12/22 00:15:38;;;;;;;17.43;13.63;;;-1.30;99.90;;;;;;5079387;28;20481;-84
2021/12/22 00:18:04;;;;;;;15.80;12.77;;;-1.40;99.90;;;;;;5061728;28;20497;-83
2021/12/22 00:20:31;;;;;;;20.57;13.70;;;-1.20;99.90;;;;;;5078963;28;20431;-82
2021/12/22 00:22:59;;;;;;;15.47;13.03;;;-1.50;99.90;;;;;;5061263;28;20422;-82
2021/12/22 00:25:26;;;;;;;16.10;13.00;;;-1.30;99.90;;;;;;5059318;28;20570;-83
2021/12/22 00:27:53;;;;;;;18.03;13.07;;;-1.20;99.90;;;;;;5062610;28;20439;-82
2021/12/22 00:30:19;;;;;;;16.80;12.80;;;-1.60;99.90;;;;;;5045166;28;20903;-81
2021/12/22 00:32:51;;;;;;;16.40;13.30;;;-1.30;99.90;;;;;;5058091;28;20454;-81
2021/12/22 00:35:20;;;;;;;14.93;12.43;;;-1.20;99.90;;;;;;5059923;28;21058;-80
2021/12/22 00:37:46;;;;;;;16.57;12.00;;;-1.30;99.90;;;;;;5057187;28;20421;-80
2021/12/22 00:40:12;;;;;;;18.30;13.50;;;-1.30;99.90;;;;;;5065383;28;20449;-82
2021/12/22 00:42:38;;;;;;;15.13;12.17;;;-1.30;99.90;;;;;;5070251;28;20945;-82
2021/12/22 00:45:04;;;;;;;14.17;11.40;;;-1.40;99.90;;;;;;5051691;28;20523;-82
2021/12/22 00:47:31;;;;;;;16.33;11.70;;;-1.50;99.90;;;;;;5037900;28;21032;-83
2021/12/22 00:49:59;;;;;;;16.17;12.33;;;-1.50;99.90;;;;;;5055924;28;20398;-84
2021/12/22 00:52:25;;;;;;;17.13;10.80;;;-1.70;99.90;;;;;;5057514;28;20390;-80
2021/12/22 00:54:51;;;;;;;17.07;12.40;;;-1.70;99.90;;;;;;5054149;28;20424;-82
2021/12/22 00:57:17;;;;;;;14.53;10.70;;;-1.50;99.90;;;;;;5083360;28;20431;-84
2021/12/22 00:59:46;;;;;;;13.43;10.90;;;-1.30;99.90;;;;;;5034446;28;20558;-83
2021/12/22 01:02:14;;;;;;;14.13;11.10;;;-1.50;99.90;;;;;;5057488;28;20806;-84
2021/12/22 01:04:40;;;;;;;12.73;10.30;;;-1.10;99.90;;;;;;5056422;28;20923;-85
2021/12/22 01:07:07;;;;;;;14.37;10.63;;;-1.10;99.90;;;;;;5083585;28;20406;-82
2021/12/22 01:09:33;;;;;;;16.63;10.77;;;-1.20;99.90;;;;;;5051457;28;20516;-81
2021/12/22 01:11:59;;;;;;;13.17;10.87;;;-1.10;99.90;;;;;;5063459;28;20991;-85
2021/12/22 01:14:25;;;;;;;30.40;17.47;;;-1.20;99.90;;;;;;5043004;28;20932;-82
2021/12/22 01:16:54;;;;;;;69.83;32.40;;;-1.30;99.90;;;;;;5039091;28;20791;-80
2021/12/22 01:19:28;;;;;;;69.60;34.73;;;-1.30;99.90;;;;;;5073501;28;20569;-84
2021/12/22 01:22:02;;;;;;;35.57;20.00;;;-1.30;99.90;;;;;;5073307;28;20401;-81
2021/12/22 01:24:37;;;;;;;33.30;17.20;;;-1.20;99.90;;;;;;5041319;28;20496;-81
2021/12/22 01:27:06;;;;;;;21.50;13.57;;;-1.20;99.90;;;;;;5056849;28;20994;-84
2021/12/22 01:29:33;;;;;;;23.70;14.77;;;-1.20;99.90;;;;;;5053293;28;20781;-83
2021/12/22 01:31:59;;;;;;;18.17;12.00;;;-1.40;99.90;;;;;;5065004;28;20524;-81
2021/12/22 01:34:25;;;;;;;17.50;11.50;;;-1.10;99.90;;;;;;5058131;28;20407;-84
2021/12/22 01:36:51;;;;;;;21.60;14.90;;;-1.30;99.90;;;;;;5065719;28;20263;-85
2021/12/22 01:39:17;;;;;;;18.93;12.77;;;-1.30;99.90;;;;;;5034138;28;20604;-82
2021/12/22 01:41:44;;;;;;;19.93;13.10;;;-1.30;99.90;;;;;;5053090;28;20402;-84
2021/12/22 01:44:12;;;;;;;22.10;14.23;;;-1.30;99.90;;;;;;5052513;28;20421;-81
2021/12/22 01:49:13;;;;;;;14.53;11.40;;;-1.30;99.90;;;;;;5073060;28;20546;-84
2021/12/22 01:51:55;;;;;;;12.97;10.23;;;-1.30;99.90;;;;;;5072770;28;20420;-84
2021/12/22 01:54:21;;;;;;;18.73;13.07;;;-1.50;99.90;;;;;;5073122;28;20422;-83
2021/12/22 01:56:51;;;;;;;17.47;11.80;;;-1.50;99.90;;;;;;5086578;28;20420;-83
2021/12/22 01:59:20;;;;;;;14.70;11.50;;;-1.20;99.90;;;;;;5052786;28;20563;-84
2021/12/22 02:01:46;;;;;;;14.97;11.50;;;-1.40;99.90;;;;;;5053263;28;20807;-81
2021/12/22 02:04:13;;;;;;;19.53;12.53;;;-1.40;99.90;;;;;;5057623;28;20395;-82
2021/12/22 02:06:43;;;;;;;18.03;11.50;;;-1.40;99.90;;;;;;5077728;28;20988;-84
2021/12/22 02:09:11;;;;;;;16.40;11.60;;;-1.50;99.90;;;;;;5081425;28;20516;-83
2021/12/22 02:11:37;;;;;;;17.97;11.90;;;-1.60;99.90;;;;;;5066767;28;20451;-82
2021/12/22 02:14:05;;;;;;;14.53;11.37;;;-1.50;99.90;;;;;;5042276;28;20403;-81
2021/12/22 02:16:36;;;;;;;14.70;11.70;;;-1.70;99.90;;;;;;5029409;28;20738;-81
2021/12/22 02:19:06;;;;;;;16.10;11.30;;;-1.70;99.90;;;;;;5046758;28;20472;-82
2021/12/22 02:21:38;;;;;;;15.83;11.90;;;-1.50;99.90;;;;;;5059271;28;20395;-81
2021/12/22 02:24:04;;;;;;;16.20;12.13;;;-1.50;99.90;;;;;;5075777;28;20935;-81
2021/12/22 02:26:37;;;;;;;17.40;12.00;;;-1.50;99.90;;;;;;5059606;28;20426;-81
2021/12/22 02:29:06;;;;;;;17.73;13.20;;;-1.40;99.90;;;;;;5046659;28;20454;-82
2021/12/22 02:31:39;;;;;;;16.00;12.23;;;-1.60;99.90;;;;;;5050616;28;20455;-81
2021/12/22 02:34:06;;;;;;;17.97;12.63;;;-1.60;99.90;;;;;;5067246;28;20510;-81
2021/12/22 02:36:38;;;;;;;15.03;10.50;;;-1.50;99.90;;;;;;5075640;28;20953;-82
2021/12/22 02:39:04;;;;;;;15.37;11.60;;;-1.80;99.90;;;;;;5042759;28;20456;-84
2021/12/22 02:41:31;;;;;;;16.10;12.37;;;-1.60;99.90;;;;;;5059047;28;20424;-81
2021/12/22 02:43:59;;;;;;;17.67;12.37;;;-1.80;99.90;;;;;;5044752;28;20431;-83
2021/12/22 02:46:31;;;;;;;13.90;11.17;;;-1.90;99.90;;;;;;5047472;28;20395;-82
2021/12/22 02:48:59;;;;;;;15.20;11.50;;;-2.00;99.90;;;;;;5055877;28;20472;-82
2021/12/22 02:51:28;;;;;;;16.03;11.97;;;-1.90;99.90;;;;;;5056356;28;20554;-83
2021/12/22 02:54:06;;;;;;;14.53;11.97;;;-1.90;99.90;;;;;;5076810;28;20785;-83
2021/12/22 02:56:38;;;;;;;18.03;12.07;;;-1.80;99.90;;;;;;5054618;28;20427;-83
2021/12/22 03:02:09;;;;;;;16.70;11.33;;;-1.70;99.90;;;;;;5060406;28;20423;-81
2021/12/22 03:04:50;;;;;;;17.13;12.07;;;-1.70;99.90;;;;;;5063547;28;20530;-82
2021/12/22 03:07:17;;;;;;;16.40;12.23;;;-1.90;99.90;;;;;;5052046;28;20398;-84
2021/12/22 03:09:44;;;;;;;21.50;11.77;;;-2.10;99.90;;;;;;5039708;28;20398;-83
2021/12/22 03:12:14;;;;;;;18.03;11.43;;;-2.10;99.90;;;;;;5058762;28;20467;-84
2021/12/22 03:14:39;;;;;;;18.07;11.57;;;-2.00;99.90;;;;;;5059550;28;20514;-81
2021/12/22 03:17:05;;;;;;;16.90;11.10;;;-2.00;99.90;;;;;;5057833;28;20920;-84
2021/12/22 03:19:34;;;;;;;15.90;11.70;;;-2.00;99.90;;;;;;5075431;28;20212;-84
2021/12/22 03:22:03;;;;;;;15.77;11.30;;;-2.10;99.90;;;;;;5042033;28;20427;-81
2021/12/22 03:24:30;;;;;;;16.47;11.30;;;-2.10;99.90;;;;;;5041848;28;20441;-84
2021/12/22 03:26:59;;;;;;;16.20;11.87;;;-2.00;99.90;;;;;;5058528;28;20405;-83
2021/12/22 03:29:25;;;;;;;16.47;12.60;;;-2.10;99.90;;;;;;5057602;28;20530;-85
2021/12/22 03:31:51;;;;;;;15.50;11.90;;;-2.30;99.90;;;;;;5030136;28;20465;-84
2021/12/22 03:34:17;;;;;;;15.03;11.50;;;-2.10;99.90;;;;;;5047351;28;20447;-80
2021/12/22 03:36:43;;;;;;;16.23;11.83;;;-2.00;99.90;;;;;;5041698;28;20287;-81
2021/12/22 03:39:11;;;;;;;12.37;10.30;;;-2.20;99.90;;;;;;5057242;28;20236;-82
2021/12/22 03:41:37;;;;;;;15.93;11.60;;;-2.00;99.90;;;;;;5022968;28;20515;-81
2021/12/22 03:44:04;;;;;;;12.80;11.40;;;-2.40;99.90;;;;;;5053331;28;20423;-84
2021/12/22 03:46:30;;;;;;;17.10;11.27;;;-2.30;99.90;;;;;;5058419;28;20395;-82
2021/12/22 03:48:58;;;;;;;14.27;10.57;;;-2.30;99.90;;;;;;5075923;28;20459;-83
2021/12/22 03:51:27;;;;;;;17.83;12.33;;;-2.30;99.90;;;;;;5076327;28;20410;-84
2021/12/22 03:53:52;;;;;;;13.73;9.23;;;-2.20;99.90;;;;;;5073744;28;20416;-84
2021/12/22 03:56:18;;;;;;;12.40;9.20;;;-2.00;99.90;;;;;;5041973;28;20398;-81
2021/12/22 03:58:44;;;;;;;12.53;10.07;;;-2.30;99.90;;;;;;5024329;28;20244;-84
2021/12/22 04:01:10;;;;;;;12.67;9.50;;;-2.30;99.90;;;;;;5035128;28;20422;-84
2021/12/22 04:03:37;;;;;;;13.63;10.43;;;-2.20;99.90;;;;;;5053794;28;20186;-83
2021/12/22 04:06:04;;;;;;;11.70;8.70;;;-2.00;99.90;;;;;;5061781;28;20544;-83
2021/12/22 04:08:29;;;;;;;11.23;8.20;;;-2.10;99.90;;;;;;5050327;28;20436;-83
2021/12/22 04:10:55;;;;;;;15.20;8.80;;;-2.20;99.90;;;;;;5038565;28;20519;-82
2021/12/22 04:13:21;;;;;;;15.40;9.43;;;-2.20;99.90;;;;;;5052095;28;20193;-84
2021/12/22 04:15:47;;;;;;;12.57;8.37;;;-2.10;99.90;;;;;;5038320;28;20190;-84
2021/12/22 04:18:13;;;;;;;15.60;10.10;;;-2.10;99.90;;;;;;5056810;28;20220;-81
2021/12/22 04:20:40;;;;;;;11.10;8.77;;;-2.00;99.90;;;;;;5073438;28;20424;-83
2021/12/22 04:23:06;;;;;;;12.57;10.03;;;-2.30;99.90;;;;;;5060331;28;20395;-81
2021/12/22 04:25:32;;;;;;;14.93;11.27;;;-1.90;99.90;;;;;;5051170;28;20408;-84
2021/12/22 04:28:05;;;;;;;18.03;11.70;;;-2.20;99.90;;;;;;5074618;28;20422;-82
2021/12/22 04:30:33;;;;;;;13.10;9.07;;;-2.00;99.90;;;;;;5041882;28;20414;-84
2021/12/22 04:33:00;;;;;;;15.10;10.50;;;-2.00;99.90;;;;;;5022916;28;20501;-84
2021/12/22 04:35:26;;;;;;;14.63;10.93;;;-2.20;99.90;;;;;;5065781;28;20391;-85
2021/12/22 04:37:52;;;;;;;14.30;11.47;;;-2.00;99.90;;;;;;5066238;28;20425;-85
2021/12/22 04:40:18;;;;;;;17.67;10.97;;;-2.10;99.90;;;;;;5052142;28;20401;-81
2021/12/22 04:42:45;;;;;;;14.67;10.93;;;-2.10;99.90;;;;;;5074624;28;20398;-84
2021/12/22 04:45:11;;;;;;;15.23;11.53;;;-2.10;99.90;;;;;;5057917;28;20217;-85
2021/12/22 04:47:38;;;;;;;14.97;11.40;;;-2.00;99.90;;;;;;5049253;28;20814;-84
2021/12/22 04:50:09;;;;;;;15.93;11.13;;;-2.10;99.90;;;;;;5055542;28;20437;-82
2021/12/22 04:52:43;;;;;;;18.87;12.10;;;-2.20;99.90;;;;;;5054374;28;20424;-82
2021/12/22 04:55:09;;;;;;;14.17;11.50;;;-2.00;99.90;;;;;;5055459;28;20827;-84
2021/12/22 04:57:35;;;;;;;15.93;11.60;;;-2.20;99.90;;;;;;5076063;28;20534;-81
2021/12/22 05:00:04;;;;;;;20.37;12.50;;;-2.30;99.90;;;;;;5076808;28;20434;-83
2021/12/22 05:02:30;;;;;;;17.63;11.90;;;-2.20;99.90;;;;;;5066598;28;20209;-80
2021/12/22 05:04:55;;;;;;;14.90;10.60;;;-2.20;99.90;;;;;;5040163;28;20794;-83
2021/12/22 05:07:21;;;;;;;16.67;11.87;;;-2.20;99.90;;;;;;5027275;28;20209;-79
2021/12/22 05:09:47;;;;;;;17.90;12.30;;;-2.10;99.90;;;;;;5060439;28;20193;-80
2021/12/22 05:12:12;;;;;;;14.50;11.00;;;-2.20;99.90;;;;;;5024133;28;20197;-79
2021/12/22 05:14:39;;;;;;;15.40;10.90;;;-2.30;99.90;;;;;;5063016;28;20197;-82
2021/12/22 05:17:06;;;;;;;16.10;11.63;;;-2.20;99.90;;;;;;5058565;28;20197;-81
2021/12/22 05:19:32;;;;;;;14.03;11.43;;;-2.30;99.90;;;;;;5039710;28;20511;-81
2021/12/22 05:21:58;;;;;;;15.53;11.40;;;-2.20;99.90;;;;;;5033215;28;20425;-82
2021/12/22 05:24:24;;;;;;;16.00;11.90;;;-2.40;99.90;;;;;;5059533;28;20276;-83
2021/12/22 05:26:50;;;;;;;17.47;11.83;;;-2.40;99.90;;;;;;5052910;28;20430;-83
2021/12/22 05:29:16;;;;;;;17.27;11.50;;;-2.40;99.90;;;;;;5076312;28;20455;-81
2021/12/22 05:31:43;;;;;;;15.93;11.77;;;-2.60;99.90;;;;;;5076656;28;20209;-84
2021/12/22 05:34:08;;;;;;;18.07;12.17;;;-2.40;99.90;;;;;;5042309;28;20969;-84
2021/12/22 05:36:34;;;;;;;16.30;11.63;;;-2.40;99.90;;;;;;5039960;28;20492;-84
2021/12/22 05:39:00;;;;;;;20.37;12.53;;;-2.50;99.90;;;;;;5059898;28;20479;-83
2021/12/22 05:41:26;;;;;;;15.07;11.67;;;-2.50;99.90;;;;;;5049868;28;20428;-84
2021/12/22 05:43:52;;;;;;;16.03;11.27;;;-2.30;99.90;;;;;;5058996;28;20526;-83
2021/12/22 05:46:18;;;;;;;17.03;12.00;;;-2.40;99.90;;;;;;5077425;28;20397;-80
2021/12/22 05:48:47;;;;;;;18.97;12.33;;;-2.50;99.90;;;;;;5059064;28;20201;-81
2021/12/22 05:51:13;;;;;;;16.50;11.63;;;-2.50;99.90;;;;;;5042527;28;20413;-80
2021/12/22 05:53:39;;;;;;;19.50;12.43;;;-2.30;99.90;;;;;;5056056;28;20556;-81
2021/12/22 05:56:05;;;;;;;17.53;12.77;;;-2.50;99.90;;;;;;5052290;28;20192;-82
2021/12/22 05:58:31;;;;;;;20.50;12.30;;;-2.50;99.90;;;;;;5076698;28;20463;-83
2021/12/22 06:00:57;;;;;;;19.53;12.77;;;-2.50;99.90;;;;;;5076956;28;20192;-82
2021/12/22 06:03:22;;;;;;;17.00;12.20;;;-2.50;99.90;;;;;;5040220;28;20709;-83
2021/12/22 06:05:48;;;;;;;18.80;13.30;;;-2.50;99.90;;;;;;5051436;28;20394;-84
2021/12/22 06:08:14;;;;;;;19.83;13.80;;;-2.60;99.90;;;;;;5040323;28;20775;-82
2021/12/22 06:10:40;;;;;;;21.90;15.50;;;-2.60;99.90;;;;;;5059571;28;20260;-85
2021/12/22 06:13:08;;;;;;;20.30;14.43;;;-2.40;99.90;;;;;;5056252;28;20216;-84
2021/12/22 06:15:35;;;;;;;21.83;15.50;;;-2.50;99.90;;;;;;5059353;28;20203;-81
2021/12/22 06:18:02;;;;;;;28.70;16.70;;;-2.60;99.90;;;;;;5042345;28;20418;-84
2021/12/22 06:20:29;;;;;;;23.83;16.00;;;-2.40;99.90;;;;;;5074446;28;20406;-83
2021/12/22 06:22:55;;;;;;;27.63;17.50;;;-2.50;99.90;;;;;;5075524;28;20431;-83
2021/12/22 06:25:22;;;;;;;28.03;17.23;;;-2.70;99.90;;;;;;5077219;28;20419;-84
2021/12/22 06:27:47;;;;;;;25.57;17.57;;;-2.50;99.90;;;;;;5072177;28;20482;-83
2021/12/22 06:30:13;;;;;;;21.57;13.87;;;-2.60;99.90;;;;;;5070764;28;20433;-82
2021/12/22 06:32:39;;;;;;;20.17;13.30;;;-2.50;99.90;;;;;;5060493;28;20486;-81
2021/12/22 06:35:06;;;;;;;20.50;13.67;;;-2.60;99.90;;;;;;5054615;28;20188;-81
2021/12/22 06:37:32;;;;;;;17.60;11.40;;;-2.40;99.90;;;;;;5058367;28;20429;-84
2021/12/22 06:39:58;;;;;;;17.47;13.00;;;-2.50;99.90;;;;;;5033361;28;20431;-82
2021/12/22 06:42:23;;;;;;;15.20;9.93;;;-2.50;99.90;;;;;;5058627;28;20486;-84
2021/12/22 06:44:50;;;;;;;17.47;12.47;;;-2.60;99.90;;;;;;5078914;28;20646;-82
2021/12/22 06:47:16;;;;;;;20.60;12.53;;;-2.50;99.90;;;;;;5076387;28;20224;-81
2021/12/22 06:49:42;;;;;;;19.13;13.10;;;-2.40;99.90;;;;;;5054465;28;20715;-84
2021/12/22 06:52:07;;;;;;;20.43;11.50;;;-2.50;99.90;;;;;;5038164;28;20245;-84
2021/12/22 06:54:33;;;;;;;14.37;11.07;;;-2.70;99.90;;;;;;5074812;28;20193;-84
2021/12/22 06:56:59;;;;;;;17.10;11.37;;;-2.40;99.90;;;;;;5064598;28;20599;-81
2021/12/22 06:59:25;;;;;;;14.50;11.87;;;-2.40;99.90;;;;;;5043759;28;20217;-83
2021/12/22 07:01:51;;;;;;;19.03;12.97;;;-2.60;99.90;;;;;;5046216;28;20415;-82
2021/12/22 07:04:20;;;;;;;17.10;12.07;;;-2.70;99.90;;;;;;5046194;28;20185;-82
2021/12/22 07:06:45;;;;;;;18.40;12.50;;;-2.60;99.90;;;;;;5064367;28;20427;-84
2021/12/22 07:09:12;;;;;;;16.50;12.70;;;-2.40;99.90;;;;;;5081597;28;20501;-79
2021/12/22 07:11:38;;;;;;;18.90;12.30;;;-2.30;99.90;;;;;;5064981;28;20397;-79
2021/12/22 07:14:07;;;;;;;15.07;12.10;;;-2.30;99.90;;;;;;5065041;28;20442;-81
2021/12/22 07:16:33;;;;;;;14.97;10.70;;;-2.10;99.90;;;;;;5051607;28;20440;-84
2021/12/22 07:18:59;;;;;;;19.03;12.03;;;-2.20;99.90;;;;;;5063342;28;20462;-81
2021/12/22 07:21:25;;;;;;;14.10;10.97;;;-2.10;99.90;;;;;;5077139;28;20425;-84
2021/12/22 07:23:51;;;;;;;18.40;12.70;;;-2.20;99.90;;;;;;5035403;28;20721;-84
2021/12/22 07:26:17;;;;;;;14.70;10.90;;;-2.20;99.90;;;;;;5080490;28;20459;-84
2021/12/22 07:28:46;;;;;;;14.47;10.80;;;-2.20;99.90;;;;;;5052389;28;20799;-81
2021/12/22 07:31:13;;;;;;;14.90;10.60;;;-2.30;99.90;;;;;;5066676;28;20196;-82
2021/12/22 07:33:42;;;;;;;12.53;9.67;;;-2.10;99.90;;;;;;5047020;28;20438;-84
2021/12/22 07:36:08;;;;;;;16.30;10.80;;;-2.10;99.90;;;;;;5060190;28;20452;-83
2021/12/22 07:38:39;;;;;;;12.10;9.63;;;-2.20;99.90;;;;;;5076469;28;20455;-84
2021/12/22 07:41:07;;;;;;;13.70;10.03;;;-2.00;99.90;;;;;;5054623;28;21142;-83
2021/12/22 07:43:34;;;;;;;14.50;9.40;;;-1.80;99.90;;;;;;5034962;28;20762;-82
2021/12/22 07:46:01;;;;;;;12.30;9.37;;;-1.80;99.90;;;;;;5062967;28;20433;-82
2021/12/22 07:48:27;;;;;;;15.13;9.60;;;-1.90;99.90;;;;;;5078928;28;20428;-83
2021/12/22 07:50:53;;;;;;;12.10;8.80;;;-1.70;99.90;;;;;;5078675;28;20453;-82
2021/12/22 07:53:19;;;;;;;12.53;8.70;;;-1.80;99.90;;;;;;5057180;28;20782;-81
2021/12/22 07:55:46;;;;;;;10.67;7.50;;;-1.60;99.90;;;;;;5062438;28;20479;-81
2021/12/22 07:58:11;;;;;;;7.80;6.10;;;-1.60;99.90;;;;;;5053861;28;20580;-83
2021/12/22 08:00:37;;;;;;;8.63;5.30;;;-1.20;99.90;;;;;;5043395;28;20422;-82
2021/12/22 08:03:03;;;;;;;6.53;5.57;;;-1.20;99.90;;;;;;5060251;28;21047;-83
2021/12/22 08:05:29;;;;;;;8.60;5.50;;;-0.90;99.90;;;;;;5046581;28;20501;-83
2021/12/22 08:07:56;;;;;;;9.97;6.27;;;-0.80;99.90;;;;;;5030218;28;20422;-82
2021/12/22 08:10:22;;;;;;;6.53;5.93;;;-0.70;99.90;;;;;;5058347;28;20199;-83
2021/12/22 08:12:48;;;;;;;5.80;5.17;;;-0.70;99.90;;;;;;5051171;28;20427;-83
2021/12/22 08:15:15;;;;;;;7.70;5.37;;;-0.60;99.90;;;;;;5030906;28;20402;-83
2021/12/22 08:17:41;;;;;;;6.27;5.07;;;-0.50;99.90;;;;;;5012366;28;20460;-82
2021/12/22 08:20:07;;;;;;;6.07;4.70;;;-0.50;99.90;;;;;;5060036;28;20548;-83
2021/12/22 08:22:33;;;;;;;5.73;4.50;;;-0.30;99.90;;;;;;5075889;28;20948;-84
2021/12/22 08:24:59;;;;;;;6.63;4.97;;;-0.40;99.90;;;;;;5035570;28;20506;-83
2021/12/22 08:27:25;;;;;;;5.50;4.60;;;-0.20;99.90;;;;;;5048250;28;20456;-84
2021/12/22 08:29:52;;;;;;;5.30;4.63;;;-0.20;99.90;;;;;;5062218;28;20189;-82
2021/12/22 08:32:18;;;;;;;5.50;4.17;;;-0.10;99.90;;;;;;5062180;28;20197;-84
2021/12/22 08:34:46;;;;;;;6.60;5.00;;;-0.30;99.90;;;;;;5039677;28;20422;-82
2021/12/22 08:39:58;;;;;;;5.73;4.53;;;0.10;99.90;;;;;;5078103;28;20463;-81
2021/12/22 08:42:25;;;;;;;5.90;4.83;;;0.30;99.90;;;;;;5061563;28;20405;-83
2021/12/22 08:44:52;;;;;;;6.67;5.10;;;0.60;99.90;;;;;;5060570;28;20402;-82
2021/12/22 08:47:18;;;;;;;5.30;4.30;;;0.60;99.90;;;;;;5061340;28;20438;-84
2021/12/22 08:49:45;;;;;;;7.10;4.90;;;0.70;99.90;;;;;;5050399;28;20424;-82
2021/12/22 08:52:11;;;;;;;11.83;5.30;;;0.80;99.90;;;;;;5041704;28;20399;-83
2021/12/22 08:54:37;;;;;;;7.37;5.23;;;0.90;99.90;;;;;;5070798;28;20480;-84
2021/12/22 08:57:03;;;;;;;6.63;4.93;;;1.20;99.90;;;;;;5049696;28;20428;-83
2021/12/22 08:59:29;;;;;;;5.70;5.10;;;1.40;99.90;;;;;;5078950;28;20851;-84
2021/12/22 09:01:55;;;;;;;8.77;4.47;;;1.60;99.90;;;;;;5048703;28;20402;-84
2021/12/22 09:04:20;;;;;;;9.10;4.80;;;1.70;99.90;;;;;;5062746;28;20189;-83
2021/12/22 09:06:48;;;;;;;5.80;4.40;;;1.70;99.90;;;;;;5077470;28;20442;-84
2021/12/22 09:09:14;;;;;;;6.20;4.70;;;1.90;99.90;;;;;;5071106;28;20493;-82
2021/12/22 09:11:40;;;;;;;5.40;4.83;;;2.00;99.90;;;;;;5045207;28;20439;-84
2021/12/22 09:14:06;;;;;;;7.30;4.80;;;2.30;99.90;;;;;;5025410;28;20243;-83
2021/12/22 09:16:34;;;;;;;6.67;4.60;;;2.30;99.90;;;;;;5058272;28;20420;-82
2021/12/22 09:19:00;;;;;;;5.70;5.17;;;2.10;99.90;;;;;;5054401;28;20211;-83
2021/12/22 09:21:25;;;;;;;7.53;5.43;;;2.30;99.90;;;;;;5047914;28;20455;-82
2021/12/22 09:23:51;;;;;;;7.47;6.10;;;2.30;99.90;;;;;;5075593;28;20427;-82
2021/12/22 09:26:17;;;;;;;7.00;5.00;;;2.60;99.90;;;;;;5046086;28;20201;-81
2021/12/22 09:28:43;;;;;;;6.67;5.07;;;2.50;99.90;;;;;;5062235;28;20300;-83
2021/12/22 09:31:09;;;;;;;8.00;5.90;;;2.60;99.90;;;;;;5062385;28;20781;-82
2021/12/22 09:33:36;;;;;;;6.60;4.90;;;2.70;99.90;;;;;;5079147;28;20448;-83
2021/12/22 09:36:05;;;;;;;7.33;5.30;;;3.00;99.90;;;;;;5059744;28;20597;-83
2021/12/22 09:38:31;;;;;;;5.80;5.20;;;3.30;99.90;;;;;;5040324;28;20468;-82
2021/12/22 09:40:56;;;;;;;7.37;5.80;;;3.20;99.90;;;;;;5061511;28;20501;-84
2021/12/22 09:43:22;;;;;;;8.63;6.10;;;3.40;99.90;;;;;;5033125;28;20277;-83
2021/12/22 09:45:53;;;;;;;9.37;5.30;;;3.20;99.90;;;;;;5065316;28;20188;-84
2021/12/22 09:49:23;;;;;;;6.53;5.13;;;3.50;99.90;;;;;;5059129;28;20451;-82
2021/12/22 09:53:37;;;;;;;6.27;5.07;;;3.60;99.90;;;;;;5077745;28;20481;-84
2021/12/22 09:56:04;;;;;;;7.23;5.17;;;3.60;99.90;;;;;;5060944;28;20411;-84
2021/12/22 09:58:31;;;;;;;8.00;6.00;;;4.00;99.90;;;;;;5031419;28;20479;-84
2021/12/22 10:00:57;;;;;;;8.13;5.93;;;4.20;99.90;;;;;;5068063;28;20437;-83
2021/12/22 10:03:24;;;;;;;10.60;5.90;;;4.30;99.90;;;;;;5063111;28;20428;-82
2021/12/22 10:05:50;;;;;;;6.87;5.60;;;4.90;99.90;;;;;;5076553;28;20960;-82
2021/12/22 10:08:27;;;;;;;5.53;4.63;;;5.60;99.90;;;;;;5069586;28;20948;-82
2021/12/22 10:11:00;;;;;;;6.67;5.80;;;5.90;99.90;;;;;;5060592;28;20438;-82
2021/12/22 10:13:29;;;;;;;7.13;4.93;;;6.40;99.90;;;;;;5044553;28;20430;-82
2021/12/22 10:15:56;;;;;;;9.63;6.00;;;6.70;99.90;;;;;;5052463;28;20515;-83
2021/12/22 10:18:24;;;;;;;11.37;6.20;;;6.80;99.90;;;;;;5026993;28;20483;-81
2021/12/22 10:20:53;;;;;;;7.17;5.70;;;7.00;99.30;;;;;;5049255;28;20955;-83
2021/12/22 10:23:28;;;;;;;8.07;5.13;;;7.60;98.90;;;;;;5042221;28;20503;-84
2021/12/22 10:25:57;;;;;;;6.20;5.60;;;7.70;98.20;;;;;;5059703;28;20430;-80
2021/12/22 10:28:24;;;;;;;6.80;5.97;;;8.00;97.10;;;;;;5033423;28;20463;-82
2021/12/22 10:30:55;;;;;;;6.80;6.10;;;7.70;97.50;;;;;;5039533;28;20451;-82
2021/12/22 10:33:27;;;;;;;8.90;5.97;;;7.50;97.30;;;;;;5049442;28;20818;-82
2021/12/22 10:36:01;;;;;;;6.80;5.43;;;7.10;98.10;;;;;;5057091;28;20448;-84
2021/12/22 10:38:29;;;;;;;7.80;6.57;;;6.60;99.00;;;;;;5062691;28;20474;-83
2021/12/22 10:41:03;;;;;;;6.83;5.93;;;6.40;99.30;;;;;;5075186;28;20455;-83
2021/12/22 10:43:31;;;;;;;7.83;6.33;;;6.20;99.50;;;;;;5045576;28;20425;-82
2021/12/22 10:46:00;;;;;;;6.73;5.70;;;6.10;99.90;;;;;;5076661;28;20431;-85
2021/12/22 10:51:25;;;;;;;9.53;6.57;;;5.80;99.90;;;;;;5074719;28;20439;-82
2021/12/22 10:53:53;;;;;;;6.40;5.60;;;5.50;99.90;;;;;;5047665;28;20447;-82
2021/12/22 10:56:43;;;;;;;8.47;6.17;;;5.80;99.90;;;;;;5070578;28;20964;-82
2021/12/22 10:59:10;;;;;;;6.97;5.70;;;5.70;99.90;;;;;;5066275;28;20470;-82
2021/12/22 11:01:39;;;;;;;8.00;6.30;;;5.70;99.90;;;;;;5059961;28;20415;-82
2021/12/22 11:04:18;;;;;;;7.53;6.13;;;5.60;99.90;;;;;;5059266;28;20780;-84
2021/12/22 11:06:45;;;;;;;8.77;6.30;;;5.30;99.90;;;;;;5027875;28;20496;-82
2021/12/22 11:09:14;;;;;;;7.80;5.90;;;5.30;99.90;;;;;;5058557;28;20455;-82
2021/12/22 11:11:43;;;;;;;6.70;5.87;;;5.20;99.90;;;;;;5050325;28;20835;-83
2021/12/22 11:14:10;;;;;;;8.43;6.07;;;5.10;99.90;;;;;;5050407;28;20481;-82
2021/12/22 11:16:54;;;;;;;9.27;6.10;;;5.00;99.90;;;;;;5058066;28;20434;-84
2021/12/22 11:19:21;;;;;;;6.57;5.40;;;5.30;99.90;;;;;;5059626;28;20459;-85
2021/12/22 11:22:11;;;;;;;8.80;6.40;;;5.20;99.90;;;;;;5046950;28;20440;-83
2021/12/22 11:24:41;;;;;;;7.93;6.30;;;5.00;99.90;;;;;;5043264;28;20507;-82
2021/12/22 11:27:09;;;;;;;8.53;5.80;;;5.30;99.90;;;;;;5042715;28;20522;-83
2021/12/22 11:29:37;;;;;;;7.60;5.67;;;5.00;99.90;;;;;;5027446;28;20434;-82
2021/12/22 11:32:05;;;;;;;7.00;6.10;;;5.10;99.90;;;;;;5044620;28;20455;-82
2021/12/22 11:34:35;;;;;;;8.60;6.63;;;5.10;99.90;;;;;;5037750;28;20463;-82
2021/12/22 11:37:07;;;;;;;11.00;6.13;;;5.10;99.90;;;;;;5056003;28;20476;-82
2021/12/22 11:39:33;;;;;;;10.10;5.60;;;5.00;99.90;;;;;;5061856;28;20473;-83
2021/12/22 11:42:02;;;;;;;7.97;5.30;;;5.20;99.90;;;;;;5064205;28;20517;-84
2021/12/22 11:44:30;;;;;;;8.70;5.97;;;5.20;99.90;;;;;;5079382;28;20422;-81
2021/12/22 11:47:00;;;;;;;7.90;5.70;;;5.10;99.90;;;;;;5060746;28;20537;-84
2021/12/22 11:49:27;;;;;;;7.10;6.00;;;5.40;99.90;;;;;;5052276;28;20515;-82
2021/12/22 11:51:53;;;;;;;9.30;6.40;;;5.80;99.70;;;;;;5053645;28;20439;-84
2021/12/22 11:54:25;;;;;;;7.00;5.50;;;6.00;99.20;;;;;;5063329;28;20485;-82
2021/12/22 11:56:53;;;;;;;6.30;5.70;;;6.90;97.50;;;;;;5048177;28;20423;-84
2021/12/22 11:59:27;;;;;;;7.70;5.30;;;7.50;95.60;;;;;;5079990;28;20975;-81
2021/12/22 12:02:24;;;;;;;7.73;5.63;;;7.90;94.90;;;;;;5058371;28;20416;-82
2021/12/22 12:04:53;;;;;;;7.37;6.10;;;8.70;93.80;;;;;;5067981;28;20435;-83
2021/12/22 12:07:42;;;;;;;7.10;5.80;;;9.00;92.60;;;;;;5061058;28;20841;-84
2021/12/22 12:10:38;;;;;;;9.23;6.70;;;9.30;92.00;;;;;;5063640;28;20453;-83
2021/12/22 12:13:21;;;;;;;7.27;5.83;;;9.50;91.10;;;;;;5080660;28;20427;-83
2021/12/22 12:22:11;;;;;;;7.40;5.83;;;8.80;90.70;;;;;;5077184;28;20435;-82
2021/12/22 12:24:53;;;;;;;7.60;5.77;;;8.30;91.50;;;;;;5049272;28;20427;-84
2021/12/22 12:27:37;;;;;;;7.97;5.13;;;7.40;92.60;;;;;;5069267;28;20416;-81
2021/12/22 12:30:12;;;;;;;6.53;5.23;;;6.70;94.00;;;;;;5066104;28;20459;-81
2021/12/22 12:32:41;;;;;;;6.70;5.50;;;6.10;94.90;;;;;;5057552;28;20414;-81
2021/12/22 12:35:34;;;;;;;8.60;5.23;;;5.90;96.00;;;;;;5077194;28;20431;-84
2021/12/22 12:38:00;;;;;;;7.10;5.00;;;5.60;96.30;;;;;;5073878;28;20463;-81
2021/12/22 12:41:05;;;;;;;6.17;5.37;;;5.60;96.80;;;;;;5078617;28;20781;-84
2021/12/22 12:43:47;;;;;;;7.40;5.03;;;5.40;97.20;;;;;;5064018;28;20204;-83
2021/12/22 12:46:29;;;;;;;7.50;5.20;;;5.00;97.30;;;;;;5078721;28;20932;-84
2021/12/22 12:49:07;;;;;;;7.83;5.17;;;4.90;97.50;;;;;;5047319;28;20974;-83
2021/12/22 12:51:42;;;;;;;6.27;4.83;;;5.10;97.80;;;;;;5048612;28;20420;-82
2021/12/22 12:54:21;;;;;;;5.57;4.97;;;4.70;97.70;;;;;;5059391;28;20414;-83
2021/12/22 12:56:54;;;;;;;5.33;4.50;;;4.60;98.00;;;;;;5053644;28;20431;-82
2021/12/22 12:59:44;;;;;;;6.03;4.87;;;4.70;98.20;;;;;;5060735;28;20461;-84
2021/12/22 13:02:18;;;;;;;5.37;4.50;;;4.60;97.90;;;;;;5075044;28;20806;-81
2021/12/22 13:04:43;;;;;;;6.40;4.77;;;4.50;98.20;;;;;;5045849;28;20483;-84